Hondarribia, Spain

11:00 PM CEST on March 30, 2015 (GMT +0200)
Irun Azken Portu | | Change Station
CLOSE
Current Station
Personal Weather Station
Location: Irun, PV
Elevation: 0 ft
Nearby Weather Stations

Elev 0 ft 43.34 °N, 1.78 °W | Updated 5 minutes ago

Overcast
Overcast
54.2 °F
Feels Like 54.2 °F
N
4.0
Wind Variable Wind from SSE
Gusts 4.0 mph

Today
High -- | Low -- °F
--% Chance of Precip.
Yesterday
High -- | Low -- °F
Precip. -- in
7:53 AM 8:30 PM
Waxing Gibbous, 82% visible
Pressure 30.42 in
Visibility 5.0 miles
Clouds Overcast 300 ft
Dew Point 52 °F
Humidity 93%
Rainfall 0.09 in
Snow Depth Not available.
UV 0 out of 12
Pollen Not available.
Air Quality Not available.
Flu Activity Not available.
METAR LFBZ 302030Z AUTO 28010KT 240V310 8000 OVC003 12/11 Q1030

More Conditions Fewer Conditions

Pressure 30.42 in
Visibility 5.0 miles
Clouds Overcast 300 ft
Dew Point 52 °F
Humidity 93%
Rainfall 0.09 in
Snow Depth Not available.
UV 0 out of 12
Pollen Not available.
Air Quality Not available.
Flu Activity Not available.
METAR LFBZ 302030Z AUTO 28010KT 240V310 8000 OVC003 12/11 Q1030

More Conditions Fewer Conditions

10-Day Weather Forecast

Almanac

Astronomy

Mar. 30, 2015 Rise Set
Actual Time
Civil Twilight
Nautical Twilight
Astronomical Twilight
Moon
Length of Visible Light
Length of Day
Tomorrow will be .
, % of the Moon is Illuminated

Today's Extremes

Country Highs Country Lows

Community

WunderPhotos

Upload Photos

1,809,587 photos uploaded!

WunderBlogs® & News

Nearby

Air Quality

  Air Quality AQ Index Pollutant
Not available.

Snow Depth

Station Depth Elevation

Earthquake Activity

City Distance Mag. Time & Date
Minimum magnitude displayed is 2.5.

Coastal Water Temperatures

Place Temperature

Stations

Nearby Weather Stations

Station Location Temp. Windchill Dew Point Humidity Wind Precip. Elev Updated Type